Time;durP1;ratioP1;P1;durP2;ratioP2;P2;SDS_P1;SDS_P2;PMS_P1;PMS_P2;Temp;Humidity;BMP_temperature;BMP_pressure;BME280_temperature;BME280_humidity;BME280_pressure;Samples;Min_cycle;Max_cycle;Signal;HPM_P1;HPM_P2
2022/09/21 00:02:31;;;;;;;25.80;21.50;;;22.50;52.10;;;;;;4822963;54;21369;-32
2022/09/21 00:07:32;;;;;;;23.33;18.95;;;22.50;52.10;;;;;;4810142;54;21067;-34
2022/09/21 00:12:34;;;;;;;24.50;20.27;;;22.50;52.20;;;;;;4814323;54;20996;-27
2022/09/21 00:17:36;;;;;;;24.30;20.15;;;22.50;52.20;;;;;;4814925;54;22230;-32
2022/09/21 00:22:37;;;;;;;24.80;19.50;;;22.50;52.30;;;;;;4811197;54;21139;-30
2022/09/21 00:27:38;;;;;;;24.42;20.35;;;22.50;52.30;;;;;;4837686;54;21177;-30
2022/09/21 00:32:38;;;;;;;24.05;19.92;;;22.40;52.20;;;;;;4817426;54;22294;-27
2022/09/21 00:37:39;;;;;;;22.35;18.40;;;22.50;52.30;;;;;;4813973;54;21371;-27
2022/09/21 00:42:40;;;;;;;22.58;18.58;;;22.50;52.40;;;;;;4814184;54;21043;-28
2022/09/21 00:47:43;;;;;;;23.02;18.20;;;22.50;52.30;;;;;;4815522;54;21494;-33
2022/09/21 00:52:50;;;;;;;22.42;18.00;;;22.50;52.30;;;;;;4805994;54;21055;-31
2022/09/21 00:57:56;;;;;;;22.83;18.50;;;22.40;52.30;;;;;;4813892;54;21620;-30
2022/09/21 01:03:00;;;;;;;22.00;18.02;;;22.50;52.40;;;;;;4844150;54;21004;-29
2022/09/21 01:08:05;;;;;;;22.20;18.17;;;22.50;52.40;;;;;;4810534;54;21454;-30
2022/09/21 01:20:14;;;;;;;21.87;17.75;;;22.50;52.40;;;;;;4820538;54;20975;-31
2022/09/21 01:26:20;;;;;;;21.50;17.65;;;22.50;52.40;;;;;;4824843;54;21047;-27
2022/09/21 01:31:25;;;;;;;20.10;16.83;;;22.40;52.40;;;;;;4833681;54;21012;-31
2022/09/21 01:36:30;;;;;;;21.65;17.37;;;22.50;52.50;;;;;;4799728;54;20972;-28
2022/09/21 01:41:31;;;;;;;20.35;17.10;;;22.40;52.40;;;;;;4795495;58;21075;-33
2022/09/21 01:46:33;;;;;;;21.92;17.02;;;22.40;52.40;;;;;;4820993;54;21032;-28
2022/09/21 01:51:38;;;;;;;18.98;16.10;;;22.50;52.50;;;;;;4805490;54;21565;-28
2022/09/21 01:56:50;;;;;;;21.37;16.83;;;22.40;52.50;;;;;;4815552;54;21162;-27
2022/09/21 02:01:56;;;;;;;19.05;16.00;;;22.40;52.50;;;;;;4846163;54;21040;-32
2022/09/21 02:06:57;;;;;;;19.62;16.15;;;22.40;52.50;;;;;;4837531;54;21985;-29
2022/09/21 02:12:02;;;;;;;19.62;16.05;;;22.40;52.50;;;;;;4795171;58;21032;-28
2022/09/21 02:20:18;;;;;;;19.05;15.82;;;22.40;52.50;;;;;;4833732;54;21014;-32
2022/09/21 02:26:44;;;;;;;19.37;16.45;;;22.40;52.50;;;;;;4821377;54;21000;-33
2022/09/21 02:35:35;;;;;;;19.60;16.48;;;22.40;52.50;;;;;;4813687;54;20988;-33
2022/09/21 02:42:11;;;;;;;16.85;14.15;;;22.40;52.60;;;;;;4818068;54;21597;-36
2022/09/21 02:47:27;;;;;;;18.80;15.48;;;22.40;52.70;;;;;;4803140;54;21008;-29
2022/09/21 02:52:31;;;;;;;19.08;15.75;;;22.40;52.60;;;;;;4797916;54;21075;-32
2022/09/21 02:57:32;;;;;;;20.20;16.02;;;22.40;52.50;;;;;;4800131;54;21047;-31
2022/09/21 03:02:41;;;;;;;19.12;15.55;;;22.40;52.60;;;;;;4795533;58;21528;-28
2022/09/21 03:07:42;;;;;;;19.23;15.02;;;22.40;52.60;;;;;;4827310;54;21090;-28
2022/09/21 03:12:43;;;;;;;18.60;15.48;;;22.40;52.60;;;;;;4813552;54;21031;-35
2022/09/21 03:17:44;;;;;;;19.45;16.02;;;22.40;52.70;;;;;;4805557;54;22182;-32
2022/09/21 03:22:45;;;;;;;17.33;15.10;;;22.40;53.40;;;;;;4813372;54;21044;-34
2022/09/21 03:27:45;;;;;;;17.92;15.10;;;22.40;52.70;;;;;;4795032;58;21031;-34
2022/09/21 03:32:50;;;;;;;17.23;15.27;;;22.40;52.70;;;;;;4841394;54;21012;-29
2022/09/21 03:37:53;;;;;;;18.35;15.13;;;22.40;52.70;;;;;;4795179;58;21023;-34
2022/09/21 03:42:55;;;;;;;18.98;14.77;;;22.40;52.70;;;;;;4837175;54;21506;-34
2022/09/21 03:47:58;;;;;;;20.40;15.85;;;22.40;52.70;;;;;;4805780;54;21545;-33
2022/09/21 03:52:59;;;;;;;19.67;15.52;;;22.40;52.70;;;;;;4794348;58;21040;-32
2022/09/21 03:58:03;;;;;;;20.00;15.95;;;22.40;52.70;;;;;;4802194;54;21000;-30
2022/09/21 04:03:04;;;;;;;19.70;15.82;;;22.40;52.70;;;;;;4848905;54;21000;-32
2022/09/21 04:08:05;;;;;;;19.33;15.98;;;22.40;52.80;;;;;;4803791;54;21538;-27
2022/09/21 04:13:07;;;;;;;23.15;16.05;;;22.40;53.30;;;;;;4816738;54;21498;-33
2022/09/21 04:18:08;;;;;;;22.40;16.58;;;22.40;52.90;;;;;;4805025;54;21008;-27
2022/09/21 04:23:09;;;;;;;20.15;15.07;;;22.40;52.90;;;;;;4794725;58;21008;-35
2022/09/21 04:28:10;;;;;;;21.35;16.50;;;22.40;52.80;;;;;;4795701;58;21486;-34
2022/09/21 04:33:11;;;;;;;21.17;16.45;;;22.40;52.80;;;;;;4812251;54;21080;-31
2022/09/21 04:38:12;;;;;;;22.58;16.08;;;22.40;52.80;;;;;;4795904;58;21012;-34
2022/09/21 04:43:13;;;;;;;20.80;15.93;;;22.40;52.70;;;;;;4795249;58;21569;-32
2022/09/21 04:48:14;;;;;;;22.02;17.08;;;22.30;52.70;;;;;;4823852;54;21019;-32
2022/09/21 04:53:15;;;;;;;23.12;17.02;;;22.30;52.60;;;;;;4801038;54;21044;-33
2022/09/21 04:58:15;;;;;;;20.95;16.30;;;22.40;52.60;;;;;;4805889;54;21075;-34
2022/09/21 05:03:17;;;;;;;24.83;17.67;;;22.30;52.50;;;;;;4804085;54;21075;-33
2022/09/21 05:13:39;;;;;;;28.90;17.90;;;22.30;52.40;;;;;;4799561;54;21592;-28
2022/09/21 05:18:40;;;;;;;24.67;17.37;;;22.30;52.40;;;;;;4814042;54;21051;-27
2022/09/21 05:23:41;;;;;;;24.65;17.90;;;22.30;52.40;;;;;;4801939;54;21047;-30
2022/09/21 05:28:42;;;;;;;24.52;17.30;;;22.30;52.30;;;;;;4818650;54;20992;-30
2022/09/21 05:40:36;;;;;;;23.40;17.73;;;22.30;52.30;;;;;;4795316;58;21003;-28
2022/09/21 05:45:44;;;;;;;25.90;18.52;;;22.30;52.30;;;;;;4817923;54;21075;-32
2022/09/21 05:50:57;;;;;;;25.83;18.02;;;22.30;52.30;;;;;;4812103;54;21020;-28
2022/09/21 05:56:01;;;;;;;25.08;18.67;;;22.30;52.30;;;;;;4812627;54;21119;-35
2022/09/21 06:01:17;;;;;;;26.12;19.45;;;22.30;52.30;;;;;;4795804;58;21027;-37
2022/09/21 06:06:19;;;;;;;24.35;18.80;;;22.30;52.40;;;;;;4795440;55;20996;-28
2022/09/21 06:11:20;;;;;;;28.12;20.02;;;22.30;52.20;;;;;;4818948;54;21007;-33
2022/09/21 06:16:21;;;;;;;28.45;20.60;;;22.30;52.20;;;;;;4800409;54;21051;-35
2022/09/21 06:21:21;;;;;;;28.58;19.95;;;22.30;52.20;;;;;;4800382;54;21099;-31
2022/09/21 06:26:22;;;;;;;29.90;21.67;;;22.30;52.20;;;;;;4795406;58;21012;-25
2022/09/21 06:31:23;;;;;;;30.35;22.13;;;22.20;52.80;;;;;;4809431;54;21063;-35
2022/09/21 06:36:24;;;;;;;29.65;20.45;;;22.30;52.20;;;;;;4795980;54;21000;-26
2022/09/21 06:41:25;;;;;;;30.17;21.85;;;22.30;52.10;;;;;;4810208;54;21036;-37
2022/09/21 06:46:26;;;;;;;33.55;23.33;;;22.30;52.10;;;;;;4810390;54;21071;-35
2022/09/21 06:51:26;;;;;;;29.35;22.10;;;22.30;52.10;;;;;;4796659;54;22248;-27
2022/09/21 06:56:27;;;;;;;34.22;22.90;;;22.30;52.10;;;;;;4808137;54;21811;-32
2022/09/21 07:01:28;;;;;;;31.30;23.77;;;22.40;52.30;;;;;;4795357;58;21546;-37
2022/09/21 07:06:29;;;;;;;33.45;24.30;;;22.40;52.30;;;;;;4800696;54;21067;-32
2022/09/21 07:11:30;;;;;;;32.70;23.77;;;22.40;52.40;;;;;;4813542;54;21436;-26
2022/09/21 07:16:32;;;;;;;35.35;24.45;;;22.50;52.40;;;;;;4840841;54;21031;-30
2022/09/21 07:21:33;;;;;;;34.55;24.98;;;22.50;53.10;;;;;;4798265;54;22154;-29
2022/09/21 07:26:33;;;;;;;32.15;23.65;;;22.50;52.60;;;;;;4806779;54;20995;-32
2022/09/21 07:31:34;;;;;;;30.83;23.35;;;22.60;52.70;;;;;;4803559;54;21569;-31
2022/09/21 07:36:35;;;;;;;32.13;23.10;;;22.70;52.90;;;;;;4814546;54;20996;-28
2022/09/21 07:41:36;;;;;;;30.80;23.60;;;22.70;53.10;;;;;;4794742;55;21059;-32
2022/09/21 07:46:38;;;;;;;34.92;24.45;;;22.70;53.20;;;;;;4795628;54;20984;-32
2022/09/21 07:51:39;;;;;;;32.17;23.87;;;22.80;53.30;;;;;;4794782;55;21498;-27
2022/09/21 07:56:41;;;;;;;31.35;23.30;;;22.80;53.50;;;;;;4824820;54;21083;-28
2022/09/21 08:01:41;;;;;;;32.45;24.23;;;22.80;53.70;;;;;;4801264;54;21068;-34
2022/09/21 08:06:42;;;;;;;36.53;24.42;;;22.80;53.80;;;;;;4795305;58;21004;-34
2022/09/21 08:11:45;;;;;;;35.03;24.90;;;22.90;54.00;;;;;;4795104;55;21072;-30
2022/09/21 08:16:46;;;;;;;33.78;24.65;;;22.90;54.00;;;;;;4795075;55;21576;-31
2022/09/21 08:21:49;;;;;;;33.67;25.08;;;22.90;54.20;;;;;;4811520;54;21530;-32
2022/09/21 08:26:51;;;;;;;36.38;25.27;;;23.00;54.30;;;;;;4795455;55;20992;-34
2022/09/21 08:31:52;;;;;;;36.22;26.30;;;23.00;54.40;;;;;;4809711;54;21470;-43
2022/09/21 08:36:53;;;;;;;38.63;26.25;;;23.00;54.60;;;;;;4797784;54;21470;-34
2022/09/21 08:42:52;;;;;;;38.45;26.92;;;23.10;54.70;;;;;;4794742;55;21031;-32
2022/09/21 08:47:57;;;;;;;41.13;28.55;;;23.10;54.80;;;;;;4843165;54;21007;-30
2022/09/21 08:53:12;;;;;;;40.65;28.65;;;23.10;55.00;;;;;;4807080;54;21067;-36
2022/09/21 08:58:27;;;;;;;39.33;30.12;;;23.10;55.30;;;;;;4795199;58;22062;-33
2022/09/21 09:04:44;;;;;;;39.85;30.05;;;23.10;55.20;;;;;;4795525;54;21020;-30
2022/09/21 09:13:00;;;;;;;42.85;32.13;;;23.10;55.20;;;;;;4796893;54;20988;-34
2022/09/21 09:18:08;;;;;;;;;;;23.00;55.00;;;;;;4819494;54;21012;-35
2022/09/21 09:24:37;;;;;;;42.78;33.40;;;22.90;54.90;;;;;;4794598;58;20074;-30
2022/09/21 09:31:04;;;;;;;47.55;34.83;;;22.90;54.80;;;;;;4816035;54;21020;-30
2022/09/21 09:36:05;;;;;;;47.62;33.85;;;23.00;55.00;;;;;;4795948;58;21008;-33
2022/09/21 09:51:26;;;;;;;49.20;36.22;;;23.00;55.10;;;;;;4817727;54;21038;-33
2022/09/21 09:56:27;;;;;;;52.47;38.30;;;23.10;55.40;;;;;;4801825;54;21526;-32
2022/09/21 10:01:46;;;;;;;52.28;39.70;;;23.10;55.70;;;;;;4795040;54;21031;-33
2022/09/21 10:06:46;;;;;;;51.08;39.17;;;23.10;55.80;;;;;;4826021;54;21537;-30
2022/09/21 10:11:48;;;;;;;51.35;39.47;;;23.10;56.60;;;;;;4822862;54;21051;-31
2022/09/21 10:16:53;;;;;;;52.35;40.10;;;23.10;56.10;;;;;;4832784;54;21565;-32
2022/09/21 10:22:01;;;;;;;53.00;40.88;;;23.20;56.20;;;;;;4807457;54;21181;-30
2022/09/21 10:27:14;;;;;;;55.70;42.78;;;23.20;56.30;;;;;;4480518;54;21562;-29
2022/09/21 10:32:26;;;;;;;54.58;42.17;;;23.20;56.40;;;;;;4440763;59;21147;-30
2022/09/21 10:37:40;;;;;;;54.92;41.70;;;23.20;56.50;;;;;;4464610;59;21099;-34
2022/09/21 10:42:42;;;;;;;60.17;42.75;;;23.20;56.60;;;;;;4480211;59;21582;-31
2022/09/21 10:47:58;;;;;;;57.62;43.90;;;23.20;56.70;;;;;;4443944;59;21032;-37
2022/09/21 10:53:22;;;;;;;60.70;44.37;;;23.20;56.90;;;;;;4459068;59;21575;-30
2022/09/21 10:58:23;;;;;;;61.25;45.00;;;23.20;56.90;;;;;;4450608;59;21108;-32
2022/09/21 11:03:48;;;;;;;57.17;43.75;;;23.20;56.90;;;;;;4457594;59;21056;-32
2022/09/21 11:10:37;;;;;;;55.17;41.65;;;23.30;57.10;;;;;;4446607;59;21104;-29
2022/09/21 11:15:48;;;;;;;61.88;49.03;;;23.30;57.20;;;;;;4481151;59;21020;-27
2022/09/21 11:20:57;;;;;;;60.38;47.78;;;23.30;57.30;;;;;;4440029;63;21140;-29
2022/09/21 11:27:32;;;;;;;67.03;51.70;;;23.30;57.40;;;;;;4447692;59;21105;-28
2022/09/21 11:33:49;;;;;;;63.28;50.85;;;23.30;57.20;;;;;;4470920;59;21036;-29
2022/09/21 11:40:27;;;;;;;63.22;49.85;;;23.20;57.00;;;;;;4455177;59;21155;-29
2022/09/21 11:47:08;;;;;;;60.58;48.83;;;23.20;57.10;;;;;;4439950;63;21125;-31
2022/09/21 11:53:52;;;;;;;61.47;49.25;;;23.10;56.80;;;;;;4439203;63;21144;-32
2022/09/21 11:59:34;;;;;;;106.87;84.75;;;23.10;56.80;;;;;;4451171;59;21529;-29
2022/09/21 12:07:37;;;;;;;109.93;86.90;;;23.10;53.00;;;;;;4443386;59;21107;-29
2022/09/21 12:21:00;;;;;;;113.75;87.20;;;22.90;49.90;;;;;;4452040;59;21137;-30
2022/09/21 12:26:04;;;;;;;105.95;82.70;;;22.80;49.10;;;;;;4463364;59;21555;-27
2022/09/21 12:31:24;;;;;;;113.22;85.62;;;22.80;48.40;;;;;;4473214;59;21060;-28
2022/09/21 12:36:57;;;;;;;118.87;91.65;;;22.80;47.80;;;;;;4443075;59;21648;-30
2022/09/21 12:44:50;;;;;;;128.23;95.15;;;22.70;47.70;;;;;;4454501;59;21133;-27
2022/09/21 12:49:56;;;;;;;153.50;103.20;;;22.70;47.50;;;;;;4446679;59;21092;-29
2022/09/21 12:55:23;;;;;;;153.55;104.10;;;22.70;47.50;;;;;;4452363;59;21586;-35
2022/09/21 13:00:33;;;;;;;157.57;103.62;;;22.70;47.60;;;;;;4484281;59;21630;-28
2022/09/21 13:06:12;;;;;;;139.80;93.97;;;22.70;47.10;;;;;;4461580;59;21157;-32
2022/09/21 13:11:19;;;;;;;139.37;91.65;;;22.60;47.00;;;;;;4461117;59;21059;-29
2022/09/21 13:16:30;;;;;;;129.02;89.22;;;22.70;47.00;;;;;;4452823;59;21537;-28
2022/09/21 13:21:32;;;;;;;124.55;85.93;;;22.60;47.10;;;;;;4466977;59;21033;-30
2022/09/21 13:26:58;;;;;;;125.20;90.47;;;22.70;47.30;;;;;;4439858;63;21124;-30
2022/09/21 13:33:31;;;;;;;114.77;78.97;;;22.70;47.00;;;;;;4441336;59;21100;-32
2022/09/21 13:38:55;;;;;;;114.20;81.32;;;22.70;47.30;;;;;;4440140;63;21040;-28
2022/09/21 13:44:02;;;;;;;116.70;84.97;;;22.70;47.90;;;;;;4471024;59;21061;-32
2022/09/21 13:49:50;;;;;;;98.17;72.37;;;22.70;47.60;;;;;;4457128;59;21140;-32
2022/09/21 13:54:56;;;;;;;105.07;77.05;;;22.60;46.60;;;;;;4469038;59;22230;-29
2022/09/21 14:00:51;;;;;;;106.72;76.35;;;22.60;47.70;;;;;;4453967;59;21037;-31
2022/09/21 14:06:04;;;;;;;97.05;71.00;;;22.50;47.50;;;;;;4463135;59;21177;-31
2022/09/21 14:11:34;;;;;;;94.13;69.68;;;22.50;47.40;;;;;;4441134;59;21028;-28
2022/09/21 14:16:59;;;;;;;83.55;62.38;;;22.60;47.20;;;;;;4449327;59;21083;-33
2022/09/21 14:22:42;;;;;;;69.50;53.10;;;22.50;46.60;;;;;;4443064;59;21052;-30
2022/09/21 14:27:44;;;;;;;69.05;52.80;;;22.40;46.00;;;;;;4445764;59;21049;-36
2022/09/21 14:33:06;;;;;;;72.75;52.80;;;22.40;45.80;;;;;;4449862;59;21041;-36
2022/09/21 14:38:22;;;;;;;65.12;50.42;;;22.40;47.00;;;;;;4440270;63;21561;-29
2022/09/21 14:43:32;;;;;;;64.72;51.95;;;22.50;47.40;;;;;;4440320;59;21107;-33
2022/09/21 14:48:52;;;;;;;64.35;50.05;;;22.50;47.50;;;;;;4440202;63;21526;-35
2022/09/21 14:54:16;;;;;;;64.32;49.38;;;22.50;47.60;;;;;;4445685;59;21784;-35
2022/09/21 14:59:46;;;;;;;62.85;49.22;;;22.50;47.80;;;;;;4459688;59;21597;-27
2022/09/21 15:11:29;;;;;;;66.65;51.28;;;22.40;47.90;;;;;;4468299;59;21586;-29
2022/09/21 15:16:44;;;;;;;62.67;48.35;;;22.50;48.30;;;;;;4464330;59;21641;-33
2022/09/21 15:22:08;;;;;;;62.62;48.75;;;22.40;48.30;;;;;;4451799;59;21637;-34
2022/09/21 15:27:15;;;;;;;60.85;48.85;;;22.40;48.50;;;;;;4457499;59;21036;-36
2022/09/21 15:32:34;;;;;;;;;;;22.40;48.60;;;;;;4461448;59;21342;-27
2022/09/21 15:37:38;;;;;;;62.58;49.60;;;22.40;48.70;;;;;;4465630;59;20078;-34
2022/09/21 15:43:00;;;;;;;61.67;49.83;;;22.40;48.80;;;;;;4451181;58;21645;-31
2022/09/21 15:48:02;;;;;;;62.92;49.60;;;22.40;48.90;;;;;;4453240;59;21554;-33
2022/09/21 15:53:08;;;;;;;67.07;50.75;;;22.40;49.00;;;;;;4448200;59;21231;-33
2022/09/21 15:58:25;;;;;;;62.78;49.03;;;22.40;49.10;;;;;;4447382;59;21486;-31
2022/09/21 16:03:26;;;;;;;63.05;49.63;;;22.40;49.20;;;;;;4446184;59;21128;-30
2022/09/21 16:08:35;;;;;;;59.75;48.67;;;22.40;49.30;;;;;;4460731;58;21047;-29
2022/09/21 16:18:58;;;;;;;60.85;48.13;;;22.40;49.50;;;;;;4465180;59;21609;-34
2022/09/21 16:24:16;;;;;;;62.67;49.83;;;22.40;49.50;;;;;;4492321;59;21076;-32
2022/09/21 16:29:25;;;;;;;61.50;48.65;;;22.40;49.60;;;;;;4440748;59;21514;-36
2022/09/21 16:34:36;;;;;;;63.33;49.92;;;22.40;49.70;;;;;;4439852;63;21117;-32
2022/09/21 16:39:36;;;;;;;60.88;48.35;;;22.40;49.70;;;;;;4440119;59;21616;-28
2022/09/21 16:44:43;;;;;;;61.53;49.70;;;22.40;49.90;;;;;;4446783;59;21053;-28
2022/09/21 16:49:44;;;;;;;61.80;49.10;;;22.40;50.40;;;;;;4453669;59;21673;-31
2022/09/21 16:54:46;;;;;;;60.92;48.90;;;22.40;50.50;;;;;;4466636;58;21136;-30
2022/09/21 16:59:48;;;;;;;60.67;48.92;;;22.40;49.90;;;;;;4452327;58;21613;-33
2022/09/21 17:04:49;;;;;;;60.97;49.75;;;22.40;50.00;;;;;;4469758;58;21582;-37
2022/09/21 17:09:50;;;;;;;59.90;47.95;;;22.40;50.00;;;;;;4442808;58;21080;-30
2022/09/21 17:14:51;;;;;;;60.83;48.35;;;22.40;50.10;;;;;;4448184;59;21052;-33
2022/09/21 17:19:53;;;;;;;61.22;47.40;;;22.40;50.10;;;;;;4450704;58;21076;-30
2022/09/21 17:24:54;;;;;;;62.28;48.53;;;22.40;50.20;;;;;;4473370;59;21062;-32
2022/09/21 17:29:55;;;;;;;57.05;46.55;;;22.40;50.30;;;;;;4460964;59;21068;-30
2022/09/21 17:35:09;;;;;;;60.80;47.83;;;22.40;50.30;;;;;;4454271;58;21582;-33
2022/09/21 17:40:11;;;;;;;61.78;48.00;;;22.40;50.40;;;;;;4439799;63;22537;-28
2022/09/21 17:45:55;;;;;;;57.15;46.70;;;22.40;50.50;;;;;;4452475;59;21135;-30
2022/09/21 17:50:59;;;;;;;57.58;47.72;;;22.40;50.60;;;;;;4449993;59;21060;-29
2022/09/21 17:56:34;;;;;;;59.28;48.03;;;22.30;50.60;;;;;;4445469;59;21596;-29
2022/09/21 18:01:38;;;;;;;56.20;45.90;;;22.40;50.80;;;;;;4461849;59;21072;-31
2022/09/21 18:06:40;;;;;;;56.83;46.90;;;22.40;50.80;;;;;;4439715;63;21558;-28
2022/09/21 18:12:06;;;;;;;59.10;47.97;;;22.40;50.80;;;;;;4451845;59;21199;-34
2022/09/21 18:20:11;;;;;;;57.00;46.35;;;22.40;50.80;;;;;;4506454;59;21098;-33
2022/09/21 18:25:24;;;;;;;59.70;45.38;;;22.40;50.80;;;;;;4450454;59;21032;-34
2022/09/21 18:30:26;;;;;;;55.92;45.92;;;22.30;50.90;;;;;;4450773;59;21070;-33
2022/09/21 18:37:42;;;;;;;57.47;46.05;;;22.30;51.70;;;;;;4449071;59;21570;-30
2022/09/21 18:45:52;;;;;;;56.90;46.53;;;22.40;51.10;;;;;;4452376;59;21044;-31
2022/09/21 18:51:28;;;;;;;56.42;45.67;;;22.40;51.70;;;;;;4463082;59;21936;-33
2022/09/21 18:56:35;;;;;;;54.55;46.00;;;22.30;51.20;;;;;;4439990;63;21117;-29
2022/09/21 19:01:38;;;;;;;55.88;44.38;;;22.30;51.20;;;;;;4465529;59;21076;-32
2022/09/21 19:07:27;;;;;;;56.08;45.83;;;22.30;51.30;;;;;;4446504;59;21040;-33
2022/09/21 19:16:49;;;;;;;58.03;48.22;;;22.30;51.40;;;;;;4441311;59;21103;-34
2022/09/21 19:22:23;;;;;;;61.80;45.67;;;22.30;51.40;;;;;;4453200;59;21115;-35
2022/09/21 19:27:45;;;;;;;59.17;47.33;;;22.30;51.60;;;;;;4440626;63;21029;-30
2022/09/21 19:32:48;;;;;;;56.70;46.37;;;22.30;51.60;;;;;;4460654;59;21506;-33
2022/09/21 19:37:52;;;;;;;54.95;45.38;;;22.30;51.60;;;;;;4463936;59;21032;-32
2022/09/21 19:43:12;;;;;;;59.20;46.30;;;22.30;51.70;;;;;;4476749;59;21124;-31
2022/09/21 19:48:15;;;;;;;58.87;47.10;;;22.30;51.70;;;;;;4477473;59;21666;-34
2022/09/21 20:03:56;;;;;;;56.20;45.42;;;22.30;51.80;;;;;;4439061;59;21121;-30
2022/09/21 20:09:18;;;;;;;56.03;45.67;;;22.30;51.80;;;;;;4468715;59;21207;-26
2022/09/21 20:18:02;;;;;;;56.30;45.50;;;22.30;51.90;;;;;;4440334;59;21087;-29
2022/09/21 20:23:04;;;;;;;57.13;46.83;;;22.30;51.90;;;;;;4480517;59;21127;-32
2022/09/21 20:28:06;;;;;;;57.45;45.08;;;22.30;52.00;;;;;;4439618;63;21033;-29
2022/09/21 20:33:13;;;;;;;56.30;45.03;;;22.30;52.00;;;;;;4442753;59;21089;-30
2022/09/21 20:38:13;;;;;;;54.17;44.10;;;22.30;52.10;;;;;;4440420;59;21117;-32
2022/09/21 20:43:14;;;;;;;54.97;43.35;;;22.30;52.10;;;;;;4451868;58;21064;-33
2022/09/21 20:48:15;;;;;;;55.33;44.13;;;22.30;52.10;;;;;;4456974;58;21505;-35
2022/09/21 20:53:18;;;;;;;52.25;43.65;;;22.20;52.10;;;;;;4493705;59;21091;-34
2022/09/21 20:58:18;;;;;;;54.35;44.20;;;22.30;52.20;;;;;;4440334;63;21558;-36
2022/09/21 21:03:19;;;;;;;54.40;43.83;;;22.30;52.30;;;;;;4477900;58;21067;-35
2022/09/21 21:08:22;;;;;;;56.15;44.88;;;22.30;52.30;;;;;;4440400;62;21077;-35
2022/09/21 21:13:22;;;;;;;51.65;44.05;;;22.30;52.30;;;;;;4444036;59;21183;-34
2022/09/21 21:18:24;;;;;;;51.88;42.13;;;22.30;52.30;;;;;;4446835;58;21037;-28
2022/09/21 21:23:25;;;;;;;51.63;42.22;;;22.20;52.30;;;;;;4467963;58;21582;-36
2022/09/21 21:28:27;;;;;;;48.83;40.30;;;22.20;52.30;;;;;;4447927;58;21077;-33
2022/09/21 21:33:29;;;;;;;52.92;41.83;;;22.30;52.40;;;;;;4452960;58;21083;-31
2022/09/21 21:38:29;;;;;;;48.87;40.95;;;22.20;52.50;;;;;;4440186;63;21594;-33
2022/09/21 21:43:34;;;;;;;50.58;41.60;;;22.20;52.50;;;;;;4445643;58;21072;-34
2022/09/21 21:48:37;;;;;;;48.72;39.78;;;22.20;52.50;;;;;;4446476;59;21040;-30
2022/09/21 21:53:39;;;;;;;48.50;39.13;;;22.20;52.50;;;;;;4459969;59;21630;-28
2022/09/21 21:58:40;;;;;;;49.38;40.72;;;22.20;52.50;;;;;;4460089;58;21498;-30
2022/09/21 22:03:41;;;;;;;49.75;41.72;;;22.20;52.60;;;;;;4444740;59;21061;-32
2022/09/21 22:08:42;;;;;;;48.85;40.33;;;22.20;52.60;;;;;;4440054;62;21036;-32
2022/09/21 22:13:44;;;;;;;47.40;38.92;;;22.20;52.70;;;;;;4458926;59;21590;-29
2022/09/21 22:18:45;;;;;;;43.85;36.95;;;22.20;52.70;;;;;;4444967;59;21088;-31
2022/09/21 22:23:53;;;;;;;46.05;38.35;;;22.20;52.70;;;;;;4454949;58;21446;-30
2022/09/21 22:28:58;;;;;;;47.72;39.13;;;22.20;52.70;;;;;;4453278;59;21016;-35
2022/09/21 22:33:59;;;;;;;47.17;38.63;;;22.20;52.70;;;;;;4449349;59;21062;-29
2022/09/21 22:39:00;;;;;;;47.72;37.22;;;22.20;52.80;;;;;;4459529;59;21119;-33
2022/09/21 22:44:01;;;;;;;46.35;38.28;;;22.20;52.80;;;;;;4443661;59;21037;-33
2022/09/21 22:49:02;;;;;;;44.83;36.08;;;22.20;52.90;;;;;;4440211;62;21084;-33
2022/09/21 22:54:03;;;;;;;45.35;38.08;;;22.20;52.90;;;;;;4463965;59;21048;-34
2022/09/21 22:59:04;;;;;;;43.50;36.38;;;22.20;52.90;;;;;;4449662;58;21156;-33
2022/09/21 23:04:10;;;;;;;44.58;36.20;;;22.20;52.90;;;;;;4443582;59;21131;-32
2022/09/21 23:09:15;;;;;;;42.38;35.15;;;22.20;52.90;;;;;;4479983;59;21061;-32
2022/09/21 23:14:16;;;;;;;45.00;36.67;;;22.20;52.90;;;;;;4476651;59;21649;-35
2022/09/21 23:19:17;;;;;;;43.20;36.67;;;22.20;53.00;;;;;;4455730;58;21091;-26
2022/09/21 23:24:19;;;;;;;42.90;35.13;;;22.20;53.00;;;;;;4450475;58;21088;-27
2022/09/21 23:29:20;;;;;;;41.60;34.20;;;22.20;53.00;;;;;;4442588;59;21155;-34
2022/09/21 23:34:20;;;;;;;41.20;34.38;;;22.20;53.00;;;;;;4449150;58;21076;-28
2022/09/21 23:39:21;;;;;;;40.90;34.13;;;22.20;53.10;;;;;;4498773;58;21578;-32
2022/09/21 23:44:22;;;;;;;41.78;34.78;;;22.20;53.10;;;;;;4465172;58;21753;-27
2022/09/21 23:49:23;;;;;;;41.83;34.45;;;22.20;53.20;;;;;;4481988;58;21164;-31
2022/09/21 23:54:24;;;;;;;40.50;33.72;;;22.20;53.10;;;;;;4454805;58;21060;-32
2022/09/21 23:59:25;;;;;;;38.13;32.00;;;22.10;53.10;;;;;;4439749;62;21629;-31
